CheckWX is a tool to help pilots better visualize weather data.  It is not intended as a substitute for an official pre-flight weather briefing.

09:45:56 UTC

KGBG METAR
Galesburg Municipal Airport
Galesburg, Illinois, USA
Current

31 mins ago

KGBG 180915Z AUTO 11003KT 10SM CLR 05/03 A3001 RMK AO2 T00460025
Observed
Oct-18 @ 09:15 UTC
Wind
  • 110° at 3 KTS
Visibility
10 SM
Flight Rules
VFR
Cloud Levels
  • Clear skies
Temperature
C / 41°F
Dewpoint
C / 37°F
Humidity
87%
Altimeter
30.01" Hg
Pressure
1016.22 hPa
Previous

51 mins ago

KGBG 180855Z AUTO 12003KT 10SM CLR 05/03 A3001 RMK AO2 T00470025
Observed
Oct-18 @ 08:55 UTC
Wind
  • 120° at 3 KTS
Visibility
10 SM
Flight Rules
VFR
Cloud Levels
  • Clear skies
Temperature
C / 41°F
Dewpoint
C / 37°F
Humidity
87%
Altimeter
30.01" Hg
Pressure
1016.22 hPa
Previous

1 hour ago

KGBG 180835Z AUTO 12003KT 10SM CLR 05/03 A3001 RMK AO2 T00500026
Observed
Oct-18 @ 08:35 UTC
Wind
  • 120° at 3 KTS
Visibility
10 SM
Flight Rules
VFR
Cloud Levels
  • Clear skies
Temperature
C / 41°F
Dewpoint
C / 37°F
Humidity
87%
Altimeter
30.01" Hg
Pressure
1016.22 hPa